RYR3232 EIDW-LIMC
Flight info
| Callsign | RYR3232 |
|---|---|
| Flight time | 2h 0m |
| Altitude | 35000 |
| Route | PESIT2J PESIT DCT BAKUR DCT GUBJE DCT DAVAZ DCT AVZAC DCT ICOSA DCT RUHUN DCT UNZIB DCT NUCHU L18 MID UL612 OGULO DCT OKASI DCT OKEKO DCT MOU DCT MADIV DCT MOKIP DCT TUFTA DCT GEVEA DCT MOBLO/N0462F290 DCT LURAG/N0395F190 M135 ASTIG |
| Aircraft | B738/M-SDE2E3FGHIRWXY/LB1 |
Departure
| Time | 2026-05-07 12:54 |
|---|---|
| Airport | Dublin Airport (EIDW) |
Arrival
| Time | 2026-05-07 14:55 |
|---|---|
| Airport | Milan Malpensa International Airport (LIMC) |
| Time | Latitude | Longitude | Altitude | Speed | Heading |
|---|---|---|---|---|---|
| 2026-05-07 12:37 | 53.43271 | -6.25464 | 212 ft | 0 kts | 357° |
| 2026-05-07 12:45 | 53.43263 | -6.25463 | 210 ft | 2 kts | 356° |
| 2026-05-07 12:46 | 53.43245 | -6.25461 | 214 ft | 3 kts | 354° |
| 2026-05-07 12:46 | 53.43225 | -6.25457 | 213 ft | 3 kts | 352° |
| 2026-05-07 12:46 | 53.43204 | -6.25451 | 213 ft | 3 kts | 355° |
| 2026-05-07 12:46 | 53.43192 | -6.25454 | 212 ft | 2 kts | 52° |
| 2026-05-07 12:47 | 53.43188 | -6.25465 | 211 ft | 0 kts | 66° |
| 2026-05-07 12:47 | 53.43191 | -6.25453 | 212 ft | 2 kts | 66° |
| 2026-05-07 12:47 | 53.43202 | -6.25409 | 216 ft | 6 kts | 66° |
| 2026-05-07 12:47 | 53.43224 | -6.25327 | 213 ft | 9 kts | 67° |
| 2026-05-07 12:48 | 53.43226 | -6.25210 | 215 ft | 11 kts | 97° |
| 2026-05-07 12:48 | 53.43218 | -6.25068 | 210 ft | 13 kts | 92° |
| 2026-05-07 12:48 | 53.43211 | -6.24900 | 215 ft | 15 kts | 94° |
| 2026-05-07 12:48 | 53.43200 | -6.24724 | 218 ft | 5 kts | 91° |
| 2026-05-07 12:49 | 53.43197 | -6.24652 | 210 ft | 8 kts | 96° |
| 2026-05-07 12:49 | 53.43190 | -6.24548 | 210 ft | 10 kts | 96° |
| 2026-05-07 12:49 | 53.43211 | -6.24431 | 213 ft | 12 kts | 36° |
| 2026-05-07 12:49 | 53.43293 | -6.24405 | 210 ft | 14 kts | 3° |
| 2026-05-07 12:50 | 53.43350 | -6.24507 | 210 ft | 14 kts | 281° |
| 2026-05-07 12:50 | 53.43406 | -6.24558 | 210 ft | 0 kts | 1° |
| 2026-05-07 12:52 | 53.43407 | -6.24558 | 210 ft | 1 kts | 1° |
| 2026-05-07 12:52 | 53.43419 | -6.24557 | 215 ft | 3 kts | 1° |
| 2026-05-07 12:52 | 53.43447 | -6.24554 | 211 ft | 5 kts | 5° |
| 2026-05-07 12:52 | 53.43485 | -6.24548 | 215 ft | 6 kts | 4° |
| 2026-05-07 12:53 | 53.43524 | -6.24595 | 218 ft | 10 kts | 289° |
| 2026-05-07 12:53 | 53.43535 | -6.24798 | 212 ft | 41 kts | 276° |
| 2026-05-07 12:53 | 53.43584 | -6.25674 | 208 ft | 109 kts | 276° |
| 2026-05-07 12:53 | 53.43671 | -6.27269 | 213 ft | 163 kts | 276° |
| 2026-05-07 12:54 | 53.43812 | -6.29300 | 623 ft | 180 kts | 275° |
| 2026-05-07 12:54 | 53.43976 | -6.31359 | 1392 ft | 180 kts | 277° |
| 2026-05-07 12:54 | 53.44647 | -6.33264 | 1941 ft | 203 kts | 317° |
| 2026-05-07 12:54 | 53.45708 | -6.34904 | 2374 ft | 218 kts | 301° |
| 2026-05-07 12:55 | 53.46093 | -6.37366 | 2625 ft | 224 kts | 258° |
| 2026-05-07 12:55 | 53.45472 | -6.39749 | 3080 ft | 228 kts | 227° |
| 2026-05-07 12:55 | 53.44134 | -6.41300 | 3409 ft | 242 kts | 197° |
| 2026-05-07 12:55 | 53.42450 | -6.41439 | 4165 ft | 248 kts | 172° |
| 2026-05-07 12:56 | 53.40757 | -6.40721 | 4969 ft | 253 kts | 165° |
| 2026-05-07 12:56 | 53.39067 | -6.39818 | 5751 ft | 258 kts | 164° |
| 2026-05-07 12:56 | 53.37364 | -6.38885 | 6625 ft | 257 kts | 165° |
| 2026-05-07 12:56 | 53.35643 | -6.37956 | 7284 ft | 264 kts | 165° |
| 2026-05-07 12:57 | 53.33902 | -6.37032 | 8052 ft | 266 kts | 165° |
| 2026-05-07 12:57 | 53.32126 | -6.36105 | 8825 ft | 269 kts | 165° |
| 2026-05-07 12:57 | 53.30319 | -6.35174 | 9571 ft | 274 kts | 166° |
| 2026-05-07 12:57 | 53.28483 | -6.34237 | 10247 ft | 279 kts | 166° |
| 2026-05-07 12:58 | 53.26555 | -6.33262 | 10480 ft | 301 kts | 166° |
| 2026-05-07 12:58 | 53.24477 | -6.32217 | 10652 ft | 322 kts | 165° |
| 2026-05-07 12:58 | 53.23028 | -6.31490 | 10771 ft | 336 kts | 165° |
| 2026-05-07 12:58 | 53.20723 | -6.30335 | 10926 ft | 356 kts | 165° |
| 2026-05-07 12:59 | 53.18293 | -6.29119 | 11214 ft | 370 kts | 165° |
| 2026-05-07 12:59 | 53.15813 | -6.27877 | 11812 ft | 374 kts | 165° |
| 2026-05-07 12:59 | 53.13311 | -6.26625 | 12463 ft | 377 kts | 165° |
| 2026-05-07 12:59 | 53.10786 | -6.25365 | 13115 ft | 380 kts | 165° |
| 2026-05-07 13:00 | 53.08239 | -6.24096 | 13757 ft | 383 kts | 165° |
| 2026-05-07 13:00 | 53.05674 | -6.22821 | 14337 ft | 386 kts | 165° |
| 2026-05-07 13:00 | 53.03084 | -6.21536 | 14827 ft | 390 kts | 166° |
| 2026-05-07 13:00 | 53.00474 | -6.20242 | 15385 ft | 393 kts | 165° |
| 2026-05-07 13:01 | 52.97835 | -6.18937 | 15892 ft | 398 kts | 165° |
| 2026-05-07 13:01 | 52.95175 | -6.17607 | 16417 ft | 401 kts | 164° |
| 2026-05-07 13:01 | 52.92566 | -6.15905 | 16979 ft | 405 kts | 158° |
| 2026-05-07 13:01 | 52.89995 | -6.13922 | 17466 ft | 410 kts | 157° |
| 2026-05-07 13:02 | 52.87407 | -6.11875 | 17977 ft | 413 kts | 157° |
| 2026-05-07 13:02 | 52.84804 | -6.09817 | 18461 ft | 416 kts | 157° |
| 2026-05-07 13:02 | 52.82173 | -6.07758 | 18889 ft | 419 kts | 157° |
| 2026-05-07 13:02 | 52.79560 | -6.05733 | 19327 ft | 421 kts | 157° |
| 2026-05-07 13:03 | 52.76892 | -6.03682 | 19763 ft | 424 kts | 157° |
| 2026-05-07 13:03 | 52.74205 | -6.01628 | 20174 ft | 427 kts | 157° |
| 2026-05-07 13:03 | 52.71502 | -5.99568 | 20602 ft | 429 kts | 157° |
| 2026-05-07 13:03 | 52.68779 | -5.97498 | 21034 ft | 431 kts | 157° |
| 2026-05-07 13:04 | 52.66050 | -5.95426 | 21451 ft | 433 kts | 157° |
| 2026-05-07 13:04 | 52.63299 | -5.93340 | 21843 ft | 436 kts | 157° |
| 2026-05-07 13:04 | 52.60535 | -5.91246 | 22204 ft | 439 kts | 157° |
| 2026-05-07 13:04 | 52.57746 | -5.89137 | 22509 ft | 443 kts | 157° |
| 2026-05-07 13:05 | 52.54942 | -5.87019 | 22884 ft | 445 kts | 157° |
| 2026-05-07 13:05 | 52.52112 | -5.84883 | 22989 ft | 450 kts | 157° |
| 2026-05-07 13:05 | 52.49261 | -5.82735 | 23100 ft | 452 kts | 157° |
| 2026-05-07 13:05 | 52.46399 | -5.80580 | 23557 ft | 451 kts | 157° |
| 2026-05-07 13:06 | 52.43585 | -5.78464 | 23982 ft | 450 kts | 157° |
| 2026-05-07 13:06 | 52.40738 | -5.76332 | 24333 ft | 451 kts | 158° |
| 2026-05-07 13:06 | 52.37815 | -5.74459 | 24589 ft | 452 kts | 164° |
| 2026-05-07 13:06 | 52.34788 | -5.73018 | 24842 ft | 454 kts | 166° |
| 2026-05-07 13:07 | 52.31726 | -5.71630 | 25127 ft | 456 kts | 166° |
| 2026-05-07 13:07 | 52.28681 | -5.70200 | 25421 ft | 457 kts | 165° |
| 2026-05-07 13:07 | 52.25625 | -5.68717 | 25707 ft | 458 kts | 165° |
| 2026-05-07 13:07 | 52.22587 | -5.67091 | 25965 ft | 460 kts | 160° |
| 2026-05-07 13:08 | 52.19613 | -5.65120 | 26228 ft | 462 kts | 158° |
| 2026-05-07 13:08 | 52.16654 | -5.63049 | 26542 ft | 463 kts | 158° |
| 2026-05-07 13:08 | 52.13731 | -5.61003 | 26922 ft | 461 kts | 158° |
| 2026-05-07 13:08 | 52.10774 | -5.58971 | 27238 ft | 461 kts | 159° |
| 2026-05-07 13:09 | 52.07806 | -5.56970 | 27571 ft | 461 kts | 159° |
| 2026-05-07 13:09 | 52.04843 | -5.54991 | 27968 ft | 459 kts | 159° |
| 2026-05-07 13:09 | 52.01908 | -5.52987 | 28374 ft | 458 kts | 158° |
| 2026-05-07 13:09 | 51.98985 | -5.50881 | 28746 ft | 457 kts | 157° |
| 2026-05-07 13:10 | 51.96090 | -5.48777 | 29096 ft | 456 kts | 157° |
| 2026-05-07 13:10 | 51.93195 | -5.46690 | 29468 ft | 455 kts | 157° |
| 2026-05-07 13:10 | 51.90417 | -5.44213 | 29761 ft | 458 kts | 145° |
| 2026-05-07 13:10 | 51.88060 | -5.40708 | 29951 ft | 464 kts | 132° |
| 2026-05-07 13:11 | 51.86209 | -5.36437 | 30242 ft | 466 kts | 119° |
| 2026-05-07 13:11 | 51.84843 | -5.31674 | 30619 ft | 464 kts | 115° |
| 2026-05-07 13:11 | 51.83544 | -5.26915 | 30973 ft | 462 kts | 116° |
| 2026-05-07 13:11 | 51.82230 | -5.22179 | 31234 ft | 462 kts | 116° |
| 2026-05-07 13:12 | 51.80903 | -5.17517 | 31487 ft | 461 kts | 117° |
| 2026-05-07 13:12 | 51.79547 | -5.12830 | 31783 ft | 460 kts | 117° |
| 2026-05-07 13:12 | 51.78205 | -5.08135 | 32099 ft | 459 kts | 114° |
| 2026-05-07 13:12 | 51.77196 | -5.03242 | 32376 ft | 461 kts | 104° |
| 2026-05-07 13:13 | 51.76574 | -4.98164 | 32658 ft | 460 kts | 102° |
| 2026-05-07 13:13 | 51.76006 | -4.93075 | 32929 ft | 460 kts | 102° |
| 2026-05-07 13:13 | 51.75444 | -4.87995 | 33191 ft | 459 kts | 102° |
| 2026-05-07 13:13 | 51.74873 | -4.82932 | 33472 ft | 458 kts | 102° |
| 2026-05-07 13:14 | 51.74288 | -4.77887 | 33756 ft | 457 kts | 102° |
| 2026-05-07 13:14 | 51.73693 | -4.72855 | 33987 ft | 457 kts | 103° |
| 2026-05-07 13:14 | 51.73088 | -4.67821 | 34189 ft | 456 kts | 103° |
| 2026-05-07 13:14 | 51.72477 | -4.62779 | 34360 ft | 457 kts | 103° |
| 2026-05-07 13:15 | 51.71871 | -4.57810 | 34507 ft | 458 kts | 103° |
| 2026-05-07 13:15 | 51.71253 | -4.52759 | 34563 ft | 461 kts | 103° |
| 2026-05-07 13:15 | 51.70626 | -4.47657 | 34678 ft | 462 kts | 103° |
| 2026-05-07 13:15 | 51.70001 | -4.42578 | 34903 ft | 461 kts | 103° |
| 2026-05-07 13:16 | 51.69376 | -4.37514 | 35035 ft | 462 kts | 103° |
| 2026-05-07 13:16 | 51.68744 | -4.32419 | 35017 ft | 463 kts | 103° |
| 2026-05-07 13:16 | 51.67479 | -4.22260 | 35032 ft | 461 kts | 103° |
| 2026-05-07 13:17 | 51.66219 | -4.12222 | 35020 ft | 458 kts | 103° |
| 2026-05-07 13:17 | 51.64949 | -4.02179 | 35026 ft | 456 kts | 103° |
| 2026-05-07 13:18 | 51.63677 | -3.92186 | 35025 ft | 455 kts | 103° |
| 2026-05-07 13:18 | 51.62392 | -3.82207 | 35033 ft | 455 kts | 103° |
| 2026-05-07 13:19 | 51.61088 | -3.72283 | 35034 ft | 457 kts | 103° |
| 2026-05-07 13:19 | 51.59765 | -3.62255 | 35041 ft | 458 kts | 103° |
| 2026-05-07 13:20 | 51.58816 | -3.52108 | 35054 ft | 461 kts | 97° |
| 2026-05-07 13:20 | 51.58287 | -3.41801 | 35043 ft | 463 kts | 96° |
| 2026-05-07 13:21 | 51.57759 | -3.31533 | 35039 ft | 464 kts | 96° |
| 2026-05-07 13:21 | 51.57170 | -3.21202 | 35044 ft | 464 kts | 97° |
| 2026-05-07 13:22 | 51.56548 | -3.10873 | 35044 ft | 464 kts | 97° |
| 2026-05-07 13:22 | 51.55913 | -3.00536 | 35038 ft | 465 kts | 97° |
| 2026-05-07 13:23 | 51.55270 | -2.90207 | 35040 ft | 464 kts | 97° |
| 2026-05-07 13:23 | 51.54625 | -2.79962 | 35038 ft | 463 kts | 97° |
| 2026-05-07 13:24 | 51.53963 | -2.69597 | 35034 ft | 463 kts | 97° |
| 2026-05-07 13:24 | 51.53300 | -2.59372 | 35046 ft | 463 kts | 97° |
| 2026-05-07 13:25 | 51.52624 | -2.49064 | 35047 ft | 464 kts | 97° |
| 2026-05-07 13:25 | 51.51937 | -2.38742 | 35044 ft | 465 kts | 97° |
| 2026-05-07 13:26 | 51.51240 | -2.28416 | 35046 ft | 466 kts | 97° |
| 2026-05-07 13:26 | 51.50534 | -2.18074 | 35047 ft | 466 kts | 98° |
| 2026-05-07 13:27 | 51.49817 | -2.07710 | 35051 ft | 466 kts | 98° |
| 2026-05-07 13:27 | 51.49096 | -1.97426 | 35057 ft | 467 kts | 98° |
| 2026-05-07 13:28 | 51.48341 | -1.87085 | 35046 ft | 467 kts | 98° |
| 2026-05-07 13:28 | 51.47575 | -1.76735 | 35057 ft | 467 kts | 98° |
| 2026-05-07 13:29 | 51.46482 | -1.66500 | 35045 ft | 464 kts | 109° |
| 2026-05-07 13:29 | 51.43893 | -1.57067 | 35046 ft | 462 kts | 117° |
| 2026-05-07 13:30 | 51.41085 | -1.47810 | 35032 ft | 462 kts | 117° |
| 2026-05-07 13:30 | 51.38327 | -1.38520 | 35035 ft | 461 kts | 117° |
| 2026-05-07 13:31 | 51.35590 | -1.29237 | 35035 ft | 461 kts | 117° |
| 2026-05-07 13:31 | 51.32684 | -1.20114 | 35034 ft | 459 kts | 124° |
| 2026-05-07 13:32 | 51.28981 | -1.11896 | 35050 ft | 457 kts | 130° |
| 2026-05-07 13:32 | 51.25082 | -1.03851 | 35053 ft | 459 kts | 129° |
| 2026-05-07 13:33 | 51.21222 | -0.95698 | 35053 ft | 461 kts | 129° |
| 2026-05-07 13:33 | 51.17353 | -0.87535 | 35049 ft | 462 kts | 129° |
| 2026-05-07 13:34 | 51.11532 | -0.75311 | 35051 ft | 464 kts | 129° |
| 2026-05-07 13:35 | 51.07620 | -0.67131 | 35045 ft | 465 kts | 129° |
| 2026-05-07 13:35 | 51.03125 | -0.59856 | 35049 ft | 459 kts | 147° |
| 2026-05-07 13:36 | 50.97799 | -0.54254 | 35069 ft | 458 kts | 149° |
| 2026-05-07 13:36 | 50.92509 | -0.48750 | 35071 ft | 458 kts | 148° |
| 2026-05-07 13:37 | 50.87200 | -0.43148 | 35068 ft | 458 kts | 148° |
| 2026-05-07 13:37 | 50.81905 | -0.37540 | 35075 ft | 457 kts | 148° |
| 2026-05-07 13:38 | 50.76617 | -0.31955 | 35076 ft | 457 kts | 148° |
| 2026-05-07 13:38 | 50.71324 | -0.26383 | 35076 ft | 457 kts | 149° |
| 2026-05-07 13:39 | 50.66032 | -0.20831 | 35075 ft | 457 kts | 149° |
| 2026-05-07 13:39 | 50.60728 | -0.15281 | 35071 ft | 457 kts | 149° |
| 2026-05-07 13:40 | 50.55464 | -0.09784 | 35071 ft | 457 kts | 149° |
| 2026-05-07 13:40 | 50.50170 | -0.04268 | 35076 ft | 457 kts | 149° |
| 2026-05-07 13:41 | 50.44865 | 0.01242 | 35068 ft | 457 kts | 149° |
| 2026-05-07 13:41 | 50.39559 | 0.06756 | 35073 ft | 457 kts | 149° |
| 2026-05-07 13:42 | 50.34251 | 0.12264 | 35078 ft | 458 kts | 149° |
| 2026-05-07 13:42 | 50.28933 | 0.17779 | 35078 ft | 458 kts | 149° |
| 2026-05-07 13:43 | 50.23622 | 0.23276 | 35076 ft | 458 kts | 149° |
| 2026-05-07 13:43 | 50.18303 | 0.28759 | 35061 ft | 458 kts | 149° |
| 2026-05-07 13:44 | 50.13011 | 0.34187 | 35064 ft | 458 kts | 149° |
| 2026-05-07 13:44 | 50.07686 | 0.39636 | 35076 ft | 458 kts | 149° |
| 2026-05-07 13:45 | 50.02347 | 0.45088 | 35067 ft | 458 kts | 149° |
| 2026-05-07 13:45 | 49.97017 | 0.50517 | 35074 ft | 457 kts | 149° |
| 2026-05-07 13:46 | 49.91722 | 0.55898 | 35068 ft | 457 kts | 149° |
| 2026-05-07 13:46 | 49.86398 | 0.61292 | 35062 ft | 457 kts | 149° |
| 2026-05-07 13:47 | 49.81314 | 0.67243 | 35068 ft | 458 kts | 143° |
| 2026-05-07 13:47 | 49.76413 | 0.73559 | 35049 ft | 459 kts | 143° |
| 2026-05-07 13:48 | 49.72322 | 0.78793 | 35050 ft | 459 kts | 143° |
| 2026-05-07 13:48 | 49.66571 | 0.86025 | 35044 ft | 458 kts | 143° |
| 2026-05-07 13:49 | 49.62439 | 0.91178 | 35042 ft | 458 kts | 143° |
| 2026-05-07 13:49 | 49.57472 | 0.97357 | 35045 ft | 458 kts | 143° |
| 2026-05-07 13:50 | 49.52502 | 1.03527 | 35051 ft | 459 kts | 143° |
| 2026-05-07 13:50 | 49.47525 | 1.09693 | 35049 ft | 459 kts | 143° |
| 2026-05-07 13:51 | 49.42541 | 1.15852 | 35043 ft | 460 kts | 143° |
| 2026-05-07 13:51 | 49.37550 | 1.21999 | 35053 ft | 459 kts | 143° |
| 2026-05-07 13:52 | 49.32585 | 1.28098 | 35046 ft | 460 kts | 143° |
| 2026-05-07 13:52 | 49.27590 | 1.34221 | 35036 ft | 459 kts | 144° |
| 2026-05-07 13:53 | 49.22585 | 1.40342 | 35048 ft | 460 kts | 144° |
| 2026-05-07 13:53 | 49.17613 | 1.46406 | 35043 ft | 460 kts | 144° |
| 2026-05-07 13:54 | 49.12609 | 1.52493 | 35040 ft | 460 kts | 144° |
| 2026-05-07 13:54 | 49.07595 | 1.58577 | 35040 ft | 460 kts | 144° |
| 2026-05-07 13:55 | 49.02582 | 1.64643 | 35036 ft | 460 kts | 144° |
| 2026-05-07 13:55 | 48.97564 | 1.70699 | 35037 ft | 460 kts | 144° |
| 2026-05-07 13:56 | 48.92548 | 1.76736 | 35034 ft | 460 kts | 144° |
| 2026-05-07 13:56 | 48.87524 | 1.82767 | 35039 ft | 460 kts | 144° |
| 2026-05-07 13:57 | 48.82492 | 1.88792 | 35047 ft | 461 kts | 144° |
| 2026-05-07 13:57 | 48.77480 | 1.94779 | 35048 ft | 461 kts | 144° |
| 2026-05-07 13:58 | 48.72421 | 2.00804 | 35050 ft | 462 kts | 144° |
| 2026-05-07 13:58 | 48.67364 | 2.06813 | 35048 ft | 462 kts | 144° |
| 2026-05-07 13:59 | 48.62316 | 2.12798 | 35043 ft | 462 kts | 144° |
| 2026-05-07 13:59 | 48.57254 | 2.18788 | 35041 ft | 463 kts | 143° |
| 2026-05-07 14:00 | 48.52558 | 2.25482 | 35046 ft | 465 kts | 136° |
| 2026-05-07 14:00 | 48.48055 | 2.32499 | 35039 ft | 465 kts | 136° |
| 2026-05-07 14:01 | 48.43517 | 2.39454 | 35038 ft | 465 kts | 137° |
| 2026-05-07 14:01 | 48.38965 | 2.46314 | 35029 ft | 465 kts | 137° |
| 2026-05-07 14:02 | 48.34382 | 2.53192 | 35040 ft | 465 kts | 137° |
| 2026-05-07 14:02 | 48.29783 | 2.60031 | 35033 ft | 464 kts | 141° |
| 2026-05-07 14:03 | 48.24470 | 2.65286 | 35038 ft | 457 kts | 159° |
| 2026-05-07 14:03 | 48.18672 | 2.69226 | 35023 ft | 459 kts | 155° |
| 2026-05-07 14:04 | 48.13091 | 2.73894 | 35041 ft | 460 kts | 154° |
| 2026-05-07 14:04 | 48.07459 | 2.78439 | 35039 ft | 459 kts | 158° |
| 2026-05-07 14:05 | 48.01607 | 2.82252 | 35043 ft | 458 kts | 160° |
| 2026-05-07 14:05 | 47.95739 | 2.85859 | 35037 ft | 459 kts | 160° |
| 2026-05-07 14:06 | 47.89834 | 2.89546 | 35043 ft | 459 kts | 160° |
| 2026-05-07 14:06 | 47.83946 | 2.93267 | 35039 ft | 460 kts | 160° |
| 2026-05-07 14:07 | 47.78050 | 2.96996 | 35036 ft | 460 kts | 160° |
| 2026-05-07 14:07 | 47.72154 | 3.00714 | 35032 ft | 460 kts | 160° |
| 2026-05-07 14:08 | 47.66296 | 3.04397 | 35042 ft | 460 kts | 160° |
| 2026-05-07 14:08 | 47.60386 | 3.08103 | 35036 ft | 460 kts | 160° |
| 2026-05-07 14:09 | 47.54487 | 3.11794 | 35031 ft | 460 kts | 160° |
| 2026-05-07 14:09 | 47.48579 | 3.15476 | 35038 ft | 460 kts | 160° |
| 2026-05-07 14:10 | 47.42673 | 3.19146 | 35033 ft | 460 kts | 160° |
| 2026-05-07 14:10 | 47.36767 | 3.22808 | 35034 ft | 460 kts | 160° |
| 2026-05-07 14:11 | 47.30861 | 3.26463 | 35024 ft | 460 kts | 160° |
| 2026-05-07 14:11 | 47.24992 | 3.30087 | 35026 ft | 459 kts | 160° |
| 2026-05-07 14:12 | 47.19092 | 3.33720 | 35022 ft | 459 kts | 160° |
| 2026-05-07 14:12 | 47.13188 | 3.37347 | 35022 ft | 459 kts | 160° |
| 2026-05-07 14:13 | 47.07286 | 3.40965 | 35012 ft | 460 kts | 161° |
| 2026-05-07 14:13 | 47.01380 | 3.44576 | 35028 ft | 460 kts | 161° |
| 2026-05-07 14:14 | 46.95506 | 3.48159 | 35022 ft | 460 kts | 161° |
| 2026-05-07 14:14 | 46.89590 | 3.51759 | 35007 ft | 460 kts | 161° |
| 2026-05-07 14:15 | 46.83669 | 3.55355 | 35010 ft | 460 kts | 161° |
| 2026-05-07 14:15 | 46.77752 | 3.58939 | 35023 ft | 461 kts | 161° |
| 2026-05-07 14:16 | 46.72189 | 3.63562 | 35015 ft | 471 kts | 136° |
| 2026-05-07 14:16 | 46.70209 | 3.67415 | 35014 ft | 478 kts | 120° |
| 2026-05-07 14:16 | 46.69037 | 3.71894 | 35030 ft | 482 kts | 106° |
| 2026-05-07 14:17 | 46.67530 | 3.81455 | 35009 ft | 484 kts | 104° |
| 2026-05-07 14:17 | 46.65959 | 3.90990 | 35004 ft | 485 kts | 106° |
| 2026-05-07 14:18 | 46.64303 | 4.00499 | 35008 ft | 485 kts | 106° |
| 2026-05-07 14:18 | 46.62647 | 4.10024 | 35010 ft | 486 kts | 106° |
| 2026-05-07 14:19 | 46.60989 | 4.19545 | 35015 ft | 486 kts | 106° |
| 2026-05-07 14:19 | 46.59320 | 4.29078 | 35016 ft | 486 kts | 106° |
| 2026-05-07 14:20 | 46.57652 | 4.38558 | 35011 ft | 487 kts | 106° |
| 2026-05-07 14:20 | 46.55963 | 4.48094 | 35015 ft | 487 kts | 106° |
| 2026-05-07 14:21 | 46.54268 | 4.57625 | 35003 ft | 487 kts | 106° |
| 2026-05-07 14:21 | 46.52564 | 4.67148 | 35012 ft | 486 kts | 106° |
| 2026-05-07 14:22 | 46.50853 | 4.76662 | 35015 ft | 486 kts | 106° |
| 2026-05-07 14:22 | 46.49138 | 4.86150 | 35009 ft | 486 kts | 107° |
| 2026-05-07 14:23 | 46.47424 | 4.95588 | 35013 ft | 486 kts | 107° |
| 2026-05-07 14:23 | 46.45694 | 5.05066 | 34997 ft | 486 kts | 107° |
| 2026-05-07 14:24 | 46.43950 | 5.14543 | 35007 ft | 486 kts | 107° |
| 2026-05-07 14:24 | 46.42184 | 5.24024 | 35014 ft | 487 kts | 107° |
| 2026-05-07 14:25 | 46.40424 | 5.33443 | 35021 ft | 488 kts | 107° |
| 2026-05-07 14:25 | 46.38640 | 5.42953 | 35018 ft | 490 kts | 107° |
| 2026-05-07 14:26 | 46.36860 | 5.52502 | 35020 ft | 491 kts | 107° |
| 2026-05-07 14:26 | 46.35083 | 5.62062 | 35009 ft | 492 kts | 107° |
| 2026-05-07 14:27 | 46.33294 | 5.71624 | 35005 ft | 493 kts | 107° |
| 2026-05-07 14:27 | 46.31491 | 5.81200 | 35004 ft | 493 kts | 107° |
| 2026-05-07 14:28 | 46.29677 | 5.90781 | 34996 ft | 494 kts | 108° |
| 2026-05-07 14:28 | 46.27869 | 6.00294 | 34996 ft | 494 kts | 107° |
| 2026-05-07 14:29 | 46.25781 | 6.09733 | 34988 ft | 490 kts | 118° |
| 2026-05-07 14:29 | 46.22051 | 6.17831 | 35000 ft | 481 kts | 137° |
| 2026-05-07 14:30 | 46.17199 | 6.24389 | 34983 ft | 477 kts | 142° |
| 2026-05-07 14:30 | 46.12278 | 6.30823 | 34990 ft | 478 kts | 142° |
| 2026-05-07 14:31 | 46.07385 | 6.37306 | 34981 ft | 478 kts | 141° |
| 2026-05-07 14:31 | 46.02492 | 6.43829 | 34984 ft | 479 kts | 141° |
| 2026-05-07 14:32 | 45.97601 | 6.50341 | 34963 ft | 479 kts | 142° |
| 2026-05-07 14:32 | 45.92700 | 6.56849 | 34951 ft | 480 kts | 142° |
| 2026-05-07 14:32 | 45.90295 | 6.60036 | 34817 ft | 482 kts | 142° |
| 2026-05-07 14:33 | 45.87798 | 6.63329 | 34215 ft | 488 kts | 142° |
| 2026-05-07 14:33 | 45.85332 | 6.66585 | 33549 ft | 487 kts | 142° |
| 2026-05-07 14:33 | 45.82838 | 6.69875 | 32816 ft | 487 kts | 142° |
| 2026-05-07 14:33 | 45.80347 | 6.73155 | 32108 ft | 486 kts | 142° |
| 2026-05-07 14:34 | 45.77851 | 6.76421 | 31409 ft | 486 kts | 142° |
| 2026-05-07 14:34 | 45.75349 | 6.79679 | 30644 ft | 487 kts | 142° |
| 2026-05-07 14:34 | 45.72840 | 6.82942 | 29896 ft | 488 kts | 142° |
| 2026-05-07 14:34 | 45.70327 | 6.86207 | 28993 ft | 488 kts | 141° |
| 2026-05-07 14:35 | 45.67809 | 6.89478 | 28162 ft | 486 kts | 141° |
| 2026-05-07 14:35 | 45.65306 | 6.92726 | 27289 ft | 486 kts | 141° |
| 2026-05-07 14:35 | 45.62798 | 6.95977 | 26408 ft | 486 kts | 141° |
| 2026-05-07 14:35 | 45.60290 | 6.99225 | 25491 ft | 487 kts | 140° |
| 2026-05-07 14:36 | 45.57790 | 7.02459 | 24842 ft | 482 kts | 140° |
| 2026-05-07 14:36 | 45.55393 | 7.05761 | 24182 ft | 479 kts | 133° |
| 2026-05-07 14:36 | 45.53548 | 7.09690 | 23531 ft | 478 kts | 118° |
| 2026-05-07 14:36 | 45.52363 | 7.14103 | 22821 ft | 475 kts | 105° |
| 2026-05-07 14:37 | 45.51945 | 7.17148 | 22332 ft | 472 kts | 97° |
| 2026-05-07 14:37 | 45.51265 | 7.26325 | 21072 ft | 461 kts | 97° |
| 2026-05-07 14:37 | 45.50897 | 7.30836 | 20416 ft | 456 kts | 97° |
| 2026-05-07 14:38 | 45.50396 | 7.36735 | 19590 ft | 449 kts | 97° |
| 2026-05-07 14:38 | 45.50013 | 7.41129 | 18980 ft | 445 kts | 97° |
| 2026-05-07 14:38 | 45.49753 | 7.44082 | 18559 ft | 442 kts | 97° |
| 2026-05-07 14:38 | 45.49369 | 7.48406 | 17926 ft | 438 kts | 97° |
| 2026-05-07 14:39 | 45.48987 | 7.52701 | 17217 ft | 435 kts | 98° |
| 2026-05-07 14:39 | 45.48608 | 7.56944 | 16596 ft | 430 kts | 98° |
| 2026-05-07 14:39 | 45.48230 | 7.61150 | 15960 ft | 426 kts | 97° |
| 2026-05-07 14:39 | 45.47857 | 7.65312 | 15374 ft | 421 kts | 98° |
| 2026-05-07 14:40 | 45.47487 | 7.69435 | 14718 ft | 418 kts | 98° |
| 2026-05-07 14:40 | 45.47121 | 7.73514 | 14177 ft | 411 kts | 98° |
| 2026-05-07 14:40 | 45.46758 | 7.77494 | 13540 ft | 409 kts | 98° |
| 2026-05-07 14:40 | 45.46390 | 7.81498 | 12883 ft | 406 kts | 98° |
| 2026-05-07 14:41 | 45.46025 | 7.85467 | 12278 ft | 402 kts | 97° |
| 2026-05-07 14:41 | 45.45663 | 7.89400 | 11673 ft | 398 kts | 97° |
| 2026-05-07 14:41 | 45.45304 | 7.93280 | 11271 ft | 390 kts | 97° |
| 2026-05-07 14:41 | 45.44955 | 7.97045 | 11109 ft | 375 kts | 97° |
| 2026-05-07 14:42 | 45.44619 | 8.00662 | 10951 ft | 363 kts | 97° |
| 2026-05-07 14:42 | 45.44292 | 8.04164 | 10795 ft | 351 kts | 97° |
| 2026-05-07 14:42 | 45.43973 | 8.07562 | 10650 ft | 340 kts | 97° |
| 2026-05-07 14:42 | 45.43664 | 8.10853 | 10517 ft | 330 kts | 97° |
| 2026-05-07 14:43 | 45.43364 | 8.14040 | 10373 ft | 320 kts | 97° |
| 2026-05-07 14:43 | 45.43071 | 8.17137 | 10250 ft | 311 kts | 97° |
| 2026-05-07 14:43 | 45.42786 | 8.20145 | 10121 ft | 302 kts | 97° |
| 2026-05-07 14:43 | 45.42508 | 8.23071 | 9994 ft | 294 kts | 97° |
| 2026-05-07 14:44 | 45.42234 | 8.25942 | 9730 ft | 292 kts | 97° |
| 2026-05-07 14:44 | 45.41962 | 8.28794 | 9454 ft | 290 kts | 97° |
| 2026-05-07 14:44 | 45.41694 | 8.31592 | 9149 ft | 288 kts | 97° |
| 2026-05-07 14:44 | 45.41420 | 8.34443 | 8859 ft | 286 kts | 97° |
| 2026-05-07 14:45 | 45.41151 | 8.37237 | 8577 ft | 284 kts | 97° |
| 2026-05-07 14:45 | 45.40886 | 8.39976 | 8296 ft | 282 kts | 97° |
| 2026-05-07 14:45 | 45.40619 | 8.42733 | 8015 ft | 280 kts | 97° |
| 2026-05-07 14:45 | 45.40353 | 8.45478 | 7752 ft | 279 kts | 97° |
| 2026-05-07 14:46 | 45.40088 | 8.48200 | 7466 ft | 277 kts | 97° |
| 2026-05-07 14:46 | 45.39823 | 8.50920 | 7069 ft | 280 kts | 98° |
| 2026-05-07 14:46 | 45.39553 | 8.53682 | 6700 ft | 282 kts | 98° |
| 2026-05-07 14:46 | 45.39282 | 8.56449 | 6380 ft | 282 kts | 98° |
| 2026-05-07 14:47 | 45.39010 | 8.59211 | 6081 ft | 280 kts | 98° |
| 2026-05-07 14:47 | 45.38744 | 8.61915 | 5965 ft | 271 kts | 98° |
| 2026-05-07 14:47 | 45.38490 | 8.64491 | 5875 ft | 255 kts | 98° |
| 2026-05-07 14:47 | 45.38251 | 8.66908 | 5793 ft | 239 kts | 98° |
| 2026-05-07 14:48 | 45.38027 | 8.69167 | 5771 ft | 220 kts | 98° |
| 2026-05-07 14:48 | 45.37821 | 8.71239 | 5642 ft | 206 kts | 98° |
| 2026-05-07 14:48 | 45.37625 | 8.73203 | 5510 ft | 195 kts | 98° |
| 2026-05-07 14:48 | 45.37438 | 8.75074 | 5332 ft | 187 kts | 98° |
| 2026-05-07 14:49 | 45.37265 | 8.76884 | 5143 ft | 184 kts | 94° |
| 2026-05-07 14:49 | 45.37586 | 8.78601 | 4945 ft | 183 kts | 49° |
| 2026-05-07 14:49 | 45.38650 | 8.79505 | 4783 ft | 183 kts | 7° |
| 2026-05-07 14:49 | 45.39920 | 8.79389 | 4635 ft | 186 kts | 352° |
| 2026-05-07 14:50 | 45.41219 | 8.79146 | 4414 ft | 189 kts | 354° |
| 2026-05-07 14:50 | 45.42532 | 8.78950 | 4094 ft | 192 kts | 352° |
| 2026-05-07 14:50 | 45.43860 | 8.78659 | 3735 ft | 194 kts | 350° |
| 2026-05-07 14:50 | 45.45190 | 8.78312 | 3391 ft | 195 kts | 349° |
| 2026-05-07 14:51 | 45.46521 | 8.77946 | 3093 ft | 193 kts | 349° |
| 2026-05-07 14:51 | 45.47801 | 8.77590 | 3002 ft | 181 kts | 349° |
| 2026-05-07 14:51 | 45.49029 | 8.77248 | 3006 ft | 179 kts | 349° |
| 2026-05-07 14:51 | 45.50254 | 8.76907 | 2957 ft | 181 kts | 349° |
| 2026-05-07 14:52 | 45.51505 | 8.76559 | 2750 ft | 183 kts | 349° |
| 2026-05-07 14:52 | 45.52721 | 8.76220 | 2501 ft | 173 kts | 349° |
| 2026-05-07 14:52 | 45.53860 | 8.75903 | 2277 ft | 163 kts | 349° |
| 2026-05-07 14:52 | 45.54950 | 8.75600 | 2089 ft | 160 kts | 349° |
| 2026-05-07 14:53 | 45.56028 | 8.75300 | 1876 ft | 156 kts | 349° |
| 2026-05-07 14:53 | 45.57100 | 8.75002 | 1651 ft | 156 kts | 349° |
| 2026-05-07 14:53 | 45.58168 | 8.74705 | 1437 ft | 157 kts | 348° |
| 2026-05-07 14:53 | 45.59246 | 8.74401 | 1229 ft | 158 kts | 348° |
| 2026-05-07 14:54 | 45.60323 | 8.74104 | 1022 ft | 158 kts | 348° |
| 2026-05-07 14:54 | 45.61404 | 8.73798 | 820 ft | 158 kts | 347° |
| 2026-05-07 14:54 | 45.62444 | 8.73508 | 741 ft | 137 kts | 349° |
| 2026-05-07 14:54 | 45.63236 | 8.73289 | 738 ft | 95 kts | 349° |
| 2026-05-07 14:55 | 45.63659 | 8.73127 | 741 ft | 35 kts | 324° |
| 2026-05-07 14:55 | 45.63823 | 8.72895 | 740 ft | 32 kts | 303° |
| 2026-05-07 14:55 | 45.63907 | 8.72717 | 740 ft | 0 kts | 301° |
| 2026-05-07 14:57 | 45.63909 | 8.72712 | 740 ft | 2 kts | 302° |
| 2026-05-07 14:57 | 45.63930 | 8.72665 | 740 ft | 9 kts | 302° |
| 2026-05-07 14:57 | 45.63954 | 8.72560 | 739 ft | 14 kts | 266° |
| 2026-05-07 14:58 | 45.63935 | 8.72404 | 739 ft | 18 kts | 259° |
| 2026-05-07 14:58 | 45.63916 | 8.72205 | 739 ft | 22 kts | 267° |
| 2026-05-07 14:58 | 45.63903 | 8.71961 | 740 ft | 26 kts | 262° |
| 2026-05-07 14:58 | 45.63776 | 8.71832 | 740 ft | 26 kts | 170° |
| 2026-05-07 14:59 | 45.63588 | 8.71883 | 740 ft | 29 kts | 168° |
| 2026-05-07 14:59 | 45.63383 | 8.71939 | 740 ft | 31 kts | 168° |
| 2026-05-07 14:59 | 45.63168 | 8.71998 | 738 ft | 26 kts | 169° |
| 2026-05-07 14:59 | 45.63019 | 8.72024 | 740 ft | 15 kts | 205° |
| 2026-05-07 15:00 | 45.62982 | 8.71882 | 739 ft | 18 kts | 258° |
| 2026-05-07 15:00 | 45.62956 | 8.71692 | 739 ft | 22 kts | 259° |
| 2026-05-07 15:00 | 45.62934 | 8.71523 | 740 ft | 9 kts | 263° |
| 2026-05-07 15:00 | 45.62947 | 8.71493 | 740 ft | 4 kts | 328° |
| 2026-05-07 15:01 | 45.62990 | 8.71478 | 740 ft | 9 kts | 349° |
| 2026-05-07 15:01 | 45.63010 | 8.71473 | 740 ft | 0 kts | 350° |